Anderson Regional Airport
KAND : now visible

Airfield :











YOU CAN JOIN US ON...

 
LOGIN :

Register | Disclaimer

   EN    FR    IT 

 









Legend :    VFR   Marginal VFR   IFR   Intensive IFR   Very Intensive IFR
Visi :
Ceiling :
>= 8 km
>= 3000ft
5 to 8 km
1000 to 3000 ft
1500m to 5 km
500 to 1000 ft
800 to 1500m
200 to 500 ft
< 800m
< 200 ft
Symbols :   Thunderstorms  Fog  Heavy snow  Heavy precipitations  Wind > 20 kt







- Airport Elevation : 782 ft


KAND - Anderson Regional

CURRENT METAR :
  • 210556Z AUTO 00000KT 10SM CLR 23/22 A3003 RMK AO2 SLP157 T02330222 10300 20233 58010

EXPIRED METARs :
  • 210456Z AUTO 00000KT 10SM CLR 25/22 A3006 RMK AO2 SLP167 T02500222 403220233
  • 210356Z AUTO 00000KT 10SM CLR 26/23 A3006 RMK AO2 LTG DSNT E AND SE SLP167 T02610228

TAF KAND
Valid from the 21 at 06:00 until the 22 at 06:00 UTC


210534Z 2106/2206 00000KT P6SM SCT060
TEMPO 2106/2109 BKN060
FM211000 25004KT 6SM BR FEW250
FM211200 25005KT P6SM FEW180
FM211400 25007KT P6SM FEW035
FM211900 23009KT P6SM SCT050
FM220300 24004KT P6SM SCT200
KZTL FIR / North America



MET'MAP, your aeronautical weather chart ! - Copyright ORBIFLY December 2007 - Disclaimer

ORBIFLY MET'MAP TEAM :

Programming & Development : Alexandra Zaïnal
Concept & Development : Baudouin d'Aumeries
Co-Development & Prog : Marc-Olivier Méhu
Technical & hardware support : Manuel Goepfert

Contact : metmap@orbifly.com




SOURCES & CREDITS :

   NOAA       Earth
Advisory